SD-0006 weather

Songo Airstrip
Songo, South Darfur State, Sudan

Public forecast

Using degrees Celsius for public forecast. Weather courtesy of forecast.io.

METAR (pilot weather report)

Report is more than 6 hours old.

Closest report is Am Timan Airport, 249.8 nm (462.7 km) WNW. Retrieved 2018/05/15 09:00 UTC (11 months ago):

FTTN 150900Z 18008KT CAVOK 32/22 Q////

TAF (pilot weather forecast)

Forecast is more than 12 hours old.

Closest forecast is Raga Airport, 113.4 nm (210.0 km) SE. Retrieved 2014/04/09 06:00 UTC (5 years ago):

TAF HSRJ 090400Z 0906/1012 18005G15KT 9999 SCT040 BKN140 TEMPO 0912/0918 6000 TSRA FEW045CB TEMPO 0918/0924 9999 SCT040 BKN140